CMN6 weather

Edmonton/Morinville (Mike's Field)
Alberta, Canada

Public forecast

Using degrees Celsius for public forecast. Weather courtesy of forecast.io.

METAR (pilot weather report)

Closest report is Edmonton (CFB Namao) Heliport, 10.6 nm (19.7 km) SSE. Retrieved 2019/07/15 19:00 UTC (13 minutes ago):

CYED 151900Z 28007KT 9SM SCT030 BKN073 20/14 A2996 RMK CU4AC2 DA3517FT HZ SLP149

TAF (pilot weather forecast)

Closest forecast is Edmonton (CFB Namao) Heliport, 10.6 nm (19.7 km) SSE. Retrieved 2019/07/15 18:33 UTC (40 minutes ago):

TAF CYED 151730Z 1518/1606 VRB03KT P6SM FEW020 SCT050 BKN090 TEMPO 1518/1606 P6SM -SHRA SCT020 BKN050 OVC070 PROB30 1519/1605 VRB15G25KT 5SM TSRA BR OVC020CB RMK NXT FCST BY 160000Z